• Join FlightAware (Why Join?)
  • Login
  • US Flag 
11:52AM EDT


 

Airport Tracker/Info


-or-


 

Live Flight TrackerFlight Track Log ✈ SSX932 ✈ 05-Mar-2011 ✈ KASE - KDEN

Flight Track Log - Related Links

Times and Time Zones

All times are in EST time to prevent confusion due to time zone crossing. See the SSX932 flight status page for this flight to view local times or setup timezone preferences in your user account.

Time Position Orientation Groundspeed Altitude Reporting Facility
EST Latitude Longitude Course Direction KTS MPH feet Rate Location/Type
11:27AM 39.2599 -106.9350 75° East -1  Level FlightAware Approximate
11:27AM 39.2697 -106.8890 290° West 186 214 9,800 12,540 Climbing Denver Center
11:28AM 39.2842 -106.9400 281° West 209 241 11,400 2,760 Climbing Denver Center
11:29AM 39.2942 -107.0040 357° North 201 231 14,400 2,640 Climbing Denver Center
11:30AM 39.3400 -107.0070 84° East 176 203 16,700 1,800 Climbing Denver Center
11:31AM 39.3467 -106.9190 90° East 114 131 18,000 1,260 Climbing Denver Center
11:32AM 39.3469 -106.8220 90° East 183 211 19,300 1,320 Climbing Denver Center
11:33AM 39.3472 -106.7200 87° East 252 290 20,700 900 Climbing Denver Center
11:34AM 39.3517 -106.6180 90° East 306 352 21,100 120 Climbing Denver Center
11:35AM 39.3517 -106.4950 94° East 331 381 21,000 -60 Descending Denver Center
11:36AM 39.3433 -106.3470 97° East 365 420 21,000  Level Denver Center
11:37AM 39.3306 -106.2070 97° East 384 442 21,000  Level Denver Center
11:38AM 39.3178 -106.0790 95° East 397 457 21,000  Level Denver Center
11:39AM 39.3089 -105.9420 96° East 392 451 21,000  Level Denver Center
11:40AM 39.2978 -105.8050 97° East 386 444 21,000 -480 Level Denver Center
11:41AM 39.2844 -105.6710 95° East 386 444 20,100 -1,380 Descending Denver Center
11:42AM 39.2750 -105.5320 91° East 386 444 18,300 -1,380 Descending Denver Center
11:43AM 39.2739 -105.3950 40° Northeast 386 444 17,400 -1,080 Descending Denver Center
11:44AM 39.3500 -105.3110 21° North 321 369 16,200 -1,380 Descending Denver Center
11:45AM 39.4394 -105.2660 19° North 302 348 14,700 -1,200 Descending Denver Center
11:46AM 39.5244 -105.2270 19° North 321 369 13,800 -840 Descending Denver Center
11:47AM 39.6011 -105.1930 27° Northeast 311 358 13,100 -420 Descending Denver Center
11:48AM 39.6653 -105.1510 34° Northeast 271 312 13,000 -780 Descending Denver Center
11:49AM 39.7253 -105.0990 29° Northeast 258 297 11,600 -1,500 Descending Denver Center
11:50AM 39.7811 -105.0580 64° Northeast 258 297 10,000 -1,560 Descending Denver Center
11:51AM 39.8133 -104.9730 68° East 252 290 8,500 -1,140 Descending Denver Center
11:52AM 39.8372 -104.8970 100° East 238 274 7,800 -900 Descending Denver Center
11:52AM 39.8333 -104.8670 72° East 200 230 7,300 -1,020 Descending Denver TRACON
11:53AM 39.8500 -104.8000 113° Southeast 152 175 6,500 -780 Descending Denver TRACON
11:54AM 39.8333 -104.7500 113° Southeast 143 165 5,800 -720 Descending Denver TRACON